createdAt,value
2018-12-24T00:01:53.227Z,9.30
2018-12-24T00:04:24.465Z,9.30
2018-12-24T00:06:55.811Z,9.30
2018-12-24T00:09:26.859Z,9.30
2018-12-24T00:12:06.807Z,9.40
2018-12-24T00:14:31.475Z,9.30
2018-12-24T00:17:02.545Z,9.40
2018-12-24T00:19:35.350Z,9.40
2018-12-24T00:22:06.460Z,9.50
2018-12-24T00:24:37.798Z,9.50
2018-12-24T00:27:08.912Z,9.50
2018-12-24T00:29:39.983Z,9.50
2018-12-24T00:32:11.086Z,9.50
2018-12-24T00:34:42.289Z,9.60
2018-12-24T00:37:13.669Z,9.50
2018-12-24T00:39:44.763Z,9.40
2018-12-24T00:42:16.191Z,9.40
2018-12-24T00:44:47.348Z,9.30
2018-12-24T00:47:18.906Z,9.30
2018-12-24T00:49:49.934Z,9.40
2018-12-24T00:52:21.132Z,9.30
2018-12-24T00:54:52.311Z,9.20
2018-12-24T00:57:23.406Z,9.10
2018-12-24T00:59:54.749Z,9.10
2018-12-24T01:02:26.275Z,9.20
2018-12-24T01:04:57.448Z,9.20
2018-12-24T01:07:28.588Z,9.20
2018-12-24T01:09:59.898Z,9.30
2018-12-24T01:12:31.762Z,9.40
2018-12-24T01:15:03.318Z,9.40
2018-12-24T01:17:34.494Z,9.40
2018-12-24T01:20:05.876Z,9.40
2018-12-24T01:22:36.988Z,9.40
2018-12-24T01:25:08.084Z,9.50
2018-12-24T01:27:39.237Z,9.50
2018-12-24T01:30:10.345Z,9.40
2018-12-24T01:32:41.521Z,9.40
2018-12-24T01:35:12.710Z,9.40
2018-12-24T01:37:43.848Z,9.40
2018-12-24T01:40:14.980Z,9.40
2018-12-24T01:42:46.139Z,9.40
2018-12-24T01:45:17.314Z,9.40
2018-12-24T01:47:48.367Z,9.40
2018-12-24T01:50:19.613Z,9.40
2018-12-24T01:52:50.744Z,9.40
2018-12-24T01:55:22.099Z,9.40
2018-12-24T01:57:53.358Z,9.50
2018-12-24T02:00:24.420Z,9.60
2018-12-24T02:02:56.171Z,9.50
2018-12-24T02:05:27.298Z,9.50
2018-12-24T02:07:58.419Z,9.60
2018-12-24T02:10:29.623Z,9.60
2018-12-24T02:13:00.884Z,9.70
2018-12-24T02:15:32.218Z,9.80
2018-12-24T02:18:03.722Z,9.70
2018-12-24T02:20:35.429Z,9.60
2018-12-24T02:23:07.247Z,9.60
2018-12-24T02:25:38.453Z,9.50
2018-12-24T02:28:09.728Z,9.50
2018-12-24T02:30:40.827Z,9.60
2018-12-24T02:33:11.983Z,9.70
2018-12-24T02:35:43.103Z,9.70
2018-12-24T02:38:14.279Z,9.70
2018-12-24T02:40:45.376Z,9.70
2018-12-24T02:43:16.824Z,9.80
2018-12-24T02:45:48.037Z,9.70
2018-12-24T02:48:19.196Z,9.70
2018-12-24T02:50:50.465Z,9.70
2018-12-24T02:53:21.519Z,9.70
2018-12-24T02:55:52.941Z,9.70
2018-12-24T02:58:24.311Z,9.70
2018-12-24T03:00:55.605Z,9.70
2018-12-24T03:03:26.633Z,9.70
2018-12-24T03:05:57.989Z,9.70
2018-12-24T03:08:29.243Z,9.70
2018-12-24T03:11:00.321Z,9.70
2018-12-24T03:13:31.572Z,9.70
2018-12-24T03:16:02.980Z,9.60
2018-12-24T03:18:34.144Z,9.70
2018-12-24T03:21:05.251Z,9.80
2018-12-24T03:23:36.455Z,9.80
2018-12-24T03:26:07.738Z,9.80
2018-12-24T03:28:39.087Z,9.80
2018-12-24T03:31:12.588Z,9.90
2018-12-24T03:33:43.851Z,9.90
2018-12-24T03:36:14.909Z,9.80
2018-12-24T03:38:46.164Z,9.80
2018-12-24T03:41:17.332Z,9.70
2018-12-24T03:43:48.513Z,9.70
2018-12-24T03:46:19.626Z,9.60
2018-12-24T03:48:50.679Z,9.60
2018-12-24T03:51:21.943Z,9.50
2018-12-24T03:53:53.308Z,9.50
2018-12-24T03:56:24.486Z,9.40
2018-12-24T03:58:56.697Z,9.40
2018-12-24T04:01:27.734Z,9.40
2018-12-24T04:03:59.117Z,9.30
2018-12-24T04:06:30.198Z,9.30
2018-12-24T04:09:02.019Z,9.30
2018-12-24T04:11:34.134Z,9.30
2018-12-24T04:14:06.345Z,9.30
2018-12-24T04:16:37.689Z,9.30
2018-12-24T04:19:08.975Z,9.30
2018-12-24T04:21:40.106Z,9.40
2018-12-24T04:24:11.095Z,9.40
2018-12-24T04:26:42.034Z,9.50
2018-12-24T04:29:13.249Z,9.90
2018-12-24T04:31:44.362Z,10.40
2018-12-24T04:34:15.466Z,11.60
2018-12-24T04:36:47.493Z,11.70
2018-12-24T04:39:18.575Z,11.70
2018-12-24T04:41:49.571Z,11.70
2018-12-24T04:44:21.055Z,11.70
2018-12-24T04:46:52.307Z,11.80
2018-12-24T04:49:23.650Z,11.80
2018-12-24T04:51:55.108Z,11.50
2018-12-24T04:54:26.195Z,11.50
2018-12-24T04:56:57.546Z,11.20
2018-12-24T04:59:28.974Z,11.20
2018-12-24T05:02:00.375Z,11.10
2018-12-24T05:04:31.712Z,11.20
2018-12-24T05:07:02.892Z,11.00
2018-12-24T05:09:34.249Z,11.00
2018-12-24T05:12:05.341Z,10.90
2018-12-24T05:14:36.639Z,10.90
2018-12-24T05:17:08.240Z,10.90
2018-12-24T05:19:39.446Z,11.00
2018-12-24T05:22:10.492Z,11.00
2018-12-24T05:24:41.622Z,11.00
2018-12-24T05:27:12.781Z,10.90
2018-12-24T05:29:43.990Z,10.30
2018-12-24T05:32:14.992Z,9.00
2018-12-24T05:34:46.135Z,8.10
2018-12-24T05:39:47.719Z,7.60
2018-12-24T05:42:18.761Z,7.30
2018-12-24T05:44:50.149Z,7.20
2018-12-24T05:47:21.236Z,7.10
2018-12-24T05:49:52.487Z,7.00
2018-12-24T05:52:23.680Z,6.90
2018-12-24T05:54:54.773Z,6.90
2018-12-24T05:57:26.018Z,6.80
2018-12-24T05:59:57.231Z,6.80
2018-12-24T06:02:28.293Z,6.80
2018-12-24T06:04:59.978Z,6.80
2018-12-24T06:07:31.604Z,6.70
2018-12-24T06:10:03.101Z,6.70
2018-12-24T06:12:34.084Z,6.70
2018-12-24T06:15:05.503Z,6.70
2018-12-24T06:17:36.687Z,6.70
2018-12-24T06:20:07.951Z,6.70
2018-12-24T06:22:39.095Z,6.70
2018-12-24T06:25:10.325Z,6.70
2018-12-24T06:30:11.582Z,6.70
2018-12-24T06:32:42.710Z,6.60
2018-12-24T06:35:13.900Z,6.60
2018-12-24T06:37:45.324Z,6.60
